Time;durP1;ratioP1;P1;durP2;ratioP2;P2;SDS_P1;SDS_P2;PMS_P1;PMS_P2;Temp;Humidity;BMP_temperature;BMP_pressure;BME280_temperature;BME280_humidity;BME280_pressure;Samples;Min_cycle;Max_cycle;Signal;HPM_P1;HPM_P2
2021/09/21 00:11:20;;;;;;;0.70;0.70;;;23.90;52.40;;;;;;31252303;28;20103;-51
2021/09/21 00:26:22;;;;;;;0.70;0.65;;;23.90;52.00;;;;;;31273262;28;20097;-46
2021/09/21 00:41:24;;;;;;;0.95;0.90;;;23.90;51.80;;;;;;31276277;28;20061;-47
2021/09/21 00:56:26;;;;;;;0.70;0.52;;;23.90;51.40;;;;;;31274049;28;20092;-50
2021/09/21 01:11:28;;;;;;;0.90;0.60;;;23.90;51.20;;;;;;31268237;28;20473;-49
2021/09/21 01:26:30;;;;;;;0.70;0.60;;;23.90;51.10;;;;;;31265415;28;20218;-51
2021/09/21 01:41:32;;;;;;;1.33;0.70;;;23.90;50.80;;;;;;31267014;28;20129;-47
2021/09/21 02:11:55;;;;;;;0.50;0.50;;;23.90;50.70;;;;;;31262480;28;20050;-48
2021/09/21 02:26:57;;;;;;;1.20;0.60;;;23.90;50.60;;;;;;31258442;28;20076;-48
2021/09/21 02:41:59;;;;;;;0.60;0.50;;;23.90;50.40;;;;;;31255401;28;20057;-49
2021/09/21 02:57:01;;;;;;;1.65;0.57;;;23.80;50.20;;;;;;31255521;28;20045;-47
2021/09/21 03:27:23;;;;;;;1.15;0.80;;;23.80;49.70;;;;;;31253344;28;20407;-48
2021/09/21 03:42:25;;;;;;;1.10;0.63;;;23.80;49.70;;;;;;31250423;28;20106;-51
2021/09/21 03:57:27;;;;;;;1.65;0.57;;;23.70;49.60;;;;;;31250469;28;20077;-49
2021/09/21 04:12:29;;;;;;;3.90;0.68;;;23.70;49.20;;;;;;31252497;28;20130;-51
2021/09/21 04:27:32;;;;;;;1.23;0.82;;;23.70;49.50;;;;;;31252957;28;20066;-47
2021/09/21 04:42:35;;;;;;;3.65;1.40;;;23.70;49.30;;;;;;31252384;28;20053;-47
2021/09/21 04:57:38;;;;;;;6.65;1.20;;;23.70;49.30;;;;;;31252709;28;20053;-46
2021/09/21 05:12:40;;;;;;;20.13;3.75;;;23.70;49.00;;;;;;31259941;28;20050;-53
2021/09/21 05:27:42;;;;;;;12.57;4.22;;;23.40;49.50;;;;;;31254081;28;20101;-53
2021/09/21 05:42:45;;;;;;;6.05;3.65;;;23.10;50.60;;;;;;31258129;28;20069;-53
2021/09/21 05:57:47;;;;;;;16.80;4.55;;;23.00;50.10;;;;;;31272832;28;20121;-58
2021/09/21 06:12:50;;;;;;;9.15;3.10;;;22.90;47.60;;;;;;31254989;28;20050;-57
2021/09/21 06:27:52;;;;;;;17.48;4.93;;;22.70;46.00;;;;;;31253142;28;20065;-56
2021/09/21 06:42:54;;;;;;;15.35;13.00;;;22.50;46.10;;;;;;31251684;28;20054;-53
2021/09/21 06:57:56;;;;;;;62.25;45.63;;;22.40;45.10;;;;;;31250640;28;20046;-51
2021/09/21 07:12:58;;;;;;;36.28;27.88;;;22.50;46.10;;;;;;31247603;28;20124;-49
2021/09/21 07:28:02;;;;;;;31.92;23.27;;;22.70;46.30;;;;;;31240467;28;20049;-51
2021/09/21 07:43:05;;;;;;;25.30;19.98;;;22.80;46.60;;;;;;31172423;28;20050;-55
2021/09/21 07:58:07;;;;;;;53.28;44.90;;;23.40;46.60;;;;;;31237572;28;20070;-52
2021/09/21 08:13:09;;;;;;;30.98;25.33;;;22.60;46.10;;;;;;31162497;28;20054;-49
2021/09/21 08:28:12;;;;;;;12.30;10.80;;;22.50;47.00;;;;;;31225711;28;20046;-48
2021/09/21 08:43:14;;;;;;;22.25;17.42;;;22.30;44.40;;;;;;31257697;28;20597;-54
2021/09/21 08:58:27;;;;;;;16.02;11.57;;;22.20;43.50;;;;;;31267180;28;20069;-56
2021/09/21 09:13:31;;;;;;;9.27;6.53;;;22.30;44.10;;;;;;31211688;28;20070;-55
2021/09/21 09:28:36;;;;;;;23.08;19.02;;;22.10;43.70;;;;;;31252858;28;20053;-53
2021/09/21 09:43:43;;;;;;;30.15;25.55;;;22.20;44.30;;;;;;31236643;28;20164;-52
2021/09/21 09:58:45;;;;;;;23.38;20.40;;;22.30;44.00;;;;;;31138394;28;20094;-50
2021/09/21 10:13:48;;;;;;;18.90;16.25;;;22.30;43.90;;;;;;31139233;28;20054;-54
2021/09/21 10:28:51;;;;;;;18.55;16.15;;;22.40;44.40;;;;;;31134606;28;20123;-48
2021/09/21 10:44:04;;;;;;;12.88;10.05;;;22.50;44.70;;;;;;31133118;28;20047;-53
2021/09/21 10:59:15;;;;;;;29.45;23.92;;;22.50;44.20;;;;;;31219481;28;20049;-52
2021/09/21 11:14:19;;;;;;;15.25;12.02;;;22.20;42.50;;;;;;31201514;28;20136;-44
2021/09/21 11:29:21;;;;;;;13.60;10.27;;;22.30;43.30;;;;;;31214646;28;20057;-44
2021/09/21 11:44:23;;;;;;;13.45;8.85;;;22.60;43.60;;;;;;31249136;28;20125;-55
2021/09/21 11:59:25;;;;;;;21.45;7.88;;;22.90;43.50;;;;;;31248363;28;20038;-54
2021/09/21 12:14:28;;;;;;;10.27;6.80;;;23.20;43.90;;;;;;31248991;28;20046;-48
2021/09/21 12:29:33;;;;;;;26.02;8.45;;;23.20;44.30;;;;;;31248946;28;20061;-44
2021/09/21 12:44:39;;;;;;;10.20;5.82;;;23.20;45.00;;;;;;31269604;28;20061;-48
2021/09/21 12:59:41;;;;;;;12.63;6.07;;;23.40;45.10;;;;;;31255673;28;20250;-50
2021/09/21 13:14:43;;;;;;;10.25;5.50;;;23.40;45.40;;;;;;31145526;28;20098;-45
2021/09/21 13:29:45;;;;;;;9.90;4.60;;;23.40;45.50;;;;;;31246458;28;20085;-44
2021/09/21 13:44:47;;;;;;;6.88;4.15;;;23.50;45.90;;;;;;31262005;28;20057;-56
2021/09/21 13:59:49;;;;;;;24.98;13.60;;;23.50;46.00;;;;;;31253532;28;20073;-55
2021/09/21 14:14:52;;;;;;;15.57;9.18;;;23.20;47.30;;;;;;31238352;28;20113;-56
2021/09/21 14:29:56;;;;;;;9.98;8.27;;;23.20;48.90;;;;;;31187250;28;20057;-52
2021/09/21 14:44:58;;;;;;;13.07;6.78;;;23.00;49.30;;;;;;31140725;28;20133;-54
2021/09/21 15:00:01;;;;;;;7.97;5.25;;;23.00;48.70;;;;;;31137535;28;20042;-46
2021/09/21 15:15:08;;;;;;;10.55;5.70;;;23.10;48.20;;;;;;31231959;28;20053;-57
2021/09/21 15:30:17;;;;;;;8.88;5.35;;;23.20;48.50;;;;;;31250104;28;20068;-57
2021/09/21 15:45:20;;;;;;;5.88;4.00;;;23.30;47.60;;;;;;31253164;28;20109;-49
2021/09/21 16:00:25;;;;;;;11.95;4.03;;;23.50;47.00;;;;;;31233813;28;20049;-48
2021/09/21 16:15:28;;;;;;;15.98;3.97;;;23.40;47.80;;;;;;31174012;28;20062;-56
2021/09/21 16:30:31;;;;;;;43.08;18.30;;;23.30;47.40;;;;;;31235030;28;20050;-48
2021/09/21 16:45:34;;;;;;;81.18;37.10;;;23.40;48.50;;;;;;31190966;28;20046;-53
2021/09/21 17:00:37;;;;;;;74.60;28.35;;;23.30;50.00;;;;;;31192187;28;20049;-50
2021/09/21 17:15:39;;;;;;;39.97;19.17;;;23.40;50.60;;;;;;31202361;28;20058;-47
2021/09/21 17:30:41;;;;;;;28.58;15.13;;;23.30;50.30;;;;;;31262376;28;20053;-55
2021/09/21 17:45:44;;;;;;;50.85;13.95;;;23.30;51.30;;;;;;31259239;28;20060;-52
2021/09/21 18:00:46;;;;;;;35.05;10.43;;;23.30;53.20;;;;;;30904640;28;9999714;-57
2021/09/21 18:16:01;;;;;;;12.45;8.20;;;23.40;50.30;;;;;;31257827;28;20062;-48
2021/09/21 18:31:03;;;;;;;13.77;6.45;;;23.70;49.70;;;;;;31259893;28;20052;-56
2021/09/21 18:46:05;;;;;;;27.08;6.95;;;23.40;49.90;;;;;;31252448;28;20053;-54
2021/09/21 19:01:08;;;;;;;12.57;5.32;;;23.40;49.10;;;;;;31244607;28;20065;-46
2021/09/21 19:16:10;;;;;;;16.83;5.40;;;23.40;51.30;;;;;;31144763;28;20054;-47
2021/09/21 19:31:13;;;;;;;12.80;5.38;;;23.50;51.50;;;;;;31125400;28;20061;-47
2021/09/21 19:46:15;;;;;;;24.40;4.55;;;23.50;51.90;;;;;;31186252;28;20046;-50
2021/09/21 20:01:21;;;;;;;11.77;5.78;;;23.70;51.60;;;;;;31249199;28;20082;-48
2021/09/21 20:16:24;;;;;;;27.40;20.55;;;23.80;51.80;;;;;;31219633;28;20053;-43
2021/09/21 20:31:27;;;;;;;16.42;12.65;;;23.70;50.40;;;;;;31204592;28;20038;-48
2021/09/21 20:46:29;;;;;;;9.32;7.82;;;23.70;50.90;;;;;;31204839;28;20050;-52
2021/09/21 21:01:31;;;;;;;8.00;6.65;;;23.80;51.20;;;;;;31259150;28;20053;-51
2021/09/21 21:16:33;;;;;;;6.15;4.70;;;23.70;51.40;;;;;;31199178;28;20052;-46
2021/09/21 21:31:36;;;;;;;7.55;2.97;;;23.80;51.60;;;;;;31248708;28;20074;-47
2021/09/21 21:46:38;;;;;;;1.50;1.40;;;23.90;51.50;;;;;;31258389;28;20061;-49
2021/09/21 22:01:40;;;;;;;1.20;1.10;;;24.00;51.70;;;;;;31260419;28;20050;-53
2021/09/21 22:16:43;;;;;;;0.82;0.80;;;24.00;51.70;;;;;;31262338;28;20046;-46
2021/09/21 22:31:45;;;;;;;3.17;2.38;;;24.00;52.20;;;;;;31258006;28;20041;-53
2021/09/21 22:46:47;;;;;;;3.80;3.40;;;23.60;47.70;;;;;;31250482;28;20453;-45
2021/09/21 23:01:49;;;;;;;3.70;2.17;;;23.70;49.90;;;;;;31255889;28;20049;-44
2021/09/21 23:16:54;;;;;;;2.00;1.48;;;23.70;50.50;;;;;;31252606;28;20056;-48
2021/09/21 23:31:56;;;;;;;1.40;1.00;;;23.70;50.80;;;;;;31248686;28;20137;-44
2021/09/21 23:46:58;;;;;;;1.02;0.80;;;23.80;51.00;;;;;;31247433;28;20046;-46
